createdAt,value
2023-01-10T00:01:07.758Z,26.40
2023-01-10T00:04:10.190Z,26.40
2023-01-10T00:07:12.200Z,26.40
2023-01-10T00:10:14.635Z,26.50
2023-01-10T00:13:24.007Z,26.40
2023-01-10T00:16:26.479Z,26.30
2023-01-10T00:19:28.591Z,26.20
2023-01-10T00:22:30.825Z,26.20
2023-01-10T00:25:36.243Z,26.10
2023-01-10T00:28:39.436Z,26.00
2023-01-10T00:31:41.620Z,25.90
2023-01-10T00:34:43.904Z,25.90
2023-01-10T00:37:45.922Z,25.90
2023-01-10T00:40:48.229Z,25.80
2023-01-10T00:43:59.244Z,25.90
2023-01-10T00:47:01.582Z,25.90
2023-01-10T00:50:06.140Z,25.90
2023-01-10T00:53:08.848Z,25.90
2023-01-10T00:56:10.817Z,25.90
2023-01-10T00:59:13.404Z,25.90
2023-01-10T01:02:15.464Z,25.90
2023-01-10T01:05:18.996Z,25.80
2023-01-10T01:08:21.201Z,25.90
2023-01-10T01:11:23.515Z,25.90
2023-01-10T01:14:25.629Z,25.80
2023-01-10T01:17:27.938Z,25.80
2023-01-10T01:20:30.682Z,25.90
2023-01-10T01:23:34.735Z,25.90
2023-01-10T01:26:36.757Z,25.80
2023-01-10T01:29:43.357Z,25.80
2023-01-10T01:32:45.776Z,25.80
2023-01-10T01:35:49.701Z,25.80
2023-01-10T01:38:52.897Z,25.70
2023-01-10T01:41:57.868Z,25.80
2023-01-10T01:45:08.930Z,25.90
2023-01-10T01:48:34.135Z,25.80
2023-01-10T01:51:36.401Z,25.90
2023-01-10T01:54:38.672Z,26.00
2023-01-10T01:57:40.639Z,26.10
2023-01-10T02:00:43.148Z,26.10
2023-01-10T02:03:51.454Z,26.10
2023-01-10T02:06:55.728Z,26.60
2023-01-10T02:10:12.819Z,26.10
2023-01-10T02:13:17.884Z,26.10
2023-01-10T02:16:19.973Z,25.90
2023-01-10T02:19:46.692Z,25.90
2023-01-10T02:23:03.538Z,25.90
2023-01-10T02:26:21.157Z,25.80
2023-01-10T02:29:37.852Z,25.70
2023-01-10T02:33:04.277Z,25.80
2023-01-10T02:36:21.578Z,25.70
2023-01-10T02:39:23.750Z,25.70
2023-01-10T02:42:31.907Z,25.80
2023-01-10T02:45:37.089Z,25.90
2023-01-10T02:48:39.071Z,25.80
2023-01-10T02:51:41.275Z,25.70
2023-01-10T02:54:43.546Z,25.80
2023-01-10T02:57:59.224Z,25.80
2023-01-10T03:01:23.063Z,25.80
2023-01-10T03:04:51.983Z,25.80
2023-01-10T03:08:15.263Z,25.80
2023-01-10T03:11:37.583Z,25.80
2023-01-10T03:14:40.855Z,25.80
2023-01-10T03:17:45.022Z,25.80
2023-01-10T03:20:49.565Z,25.70
2023-01-10T03:23:59.632Z,25.70
2023-01-10T03:27:09.344Z,25.70
2023-01-10T03:30:31.764Z,25.60
2023-01-10T03:33:34.964Z,25.50
2023-01-10T03:36:39.901Z,25.40
2023-01-10T03:40:05.808Z,25.40
2023-01-10T03:43:42.167Z,25.40
2023-01-10T03:47:00.396Z,25.30
2023-01-10T03:50:11.608Z,25.20
2023-01-10T03:53:14.864Z,25.30
2023-01-10T03:56:17.100Z,25.30
2023-01-10T03:59:26.719Z,25.30
2023-01-10T04:02:31.119Z,25.40
2023-01-10T04:05:33.280Z,25.40
2023-01-10T04:08:35.893Z,25.40
2023-01-10T04:11:38.384Z,25.40
2023-01-10T04:14:40.685Z,25.30
2023-01-10T04:17:43.012Z,25.50
2023-01-10T04:20:45.793Z,25.50
2023-01-10T04:23:48.137Z,25.50
2023-01-10T04:26:50.436Z,25.30
2023-01-10T04:29:53.224Z,25.40
2023-01-10T04:32:55.869Z,25.30
2023-01-10T04:35:57.914Z,25.30
2023-01-10T04:39:00.262Z,25.20
2023-01-10T04:42:02.293Z,25.30
2023-01-10T04:45:05.089Z,25.30
2023-01-10T04:48:07.241Z,25.30
2023-01-10T04:51:09.500Z,25.30
2023-01-10T04:54:11.528Z,25.30
2023-01-10T04:57:13.756Z,25.30
2023-01-10T05:00:16.002Z,25.30
2023-01-10T05:03:20.295Z,25.40
2023-01-10T05:06:24.065Z,25.40
2023-01-10T05:09:26.324Z,25.40
2023-01-10T05:12:28.351Z,25.40
2023-01-10T05:15:30.614Z,25.40
2023-01-10T05:18:34.162Z,25.40
2023-01-10T05:21:36.475Z,25.30
2023-01-10T05:24:38.426Z,25.40
2023-01-10T05:27:42.920Z,25.30
2023-01-10T05:30:44.955Z,25.30
2023-01-10T05:33:49.108Z,25.30
2023-01-10T05:36:51.327Z,25.40
2023-01-10T05:39:53.636Z,25.30
2023-01-10T05:42:55.638Z,25.30
2023-01-10T05:45:58.022Z,25.40
2023-01-10T05:49:00.160Z,25.40
2023-01-10T05:52:02.519Z,25.40
2023-01-10T05:55:05.437Z,25.40
2023-01-10T05:58:08.276Z,25.40
2023-01-10T06:01:10.717Z,25.30
2023-01-10T06:04:13.045Z,25.40
2023-01-10T06:07:15.382Z,25.30
2023-01-10T06:10:18.143Z,25.40
2023-01-10T06:13:20.134Z,25.40
2023-01-10T06:16:28.371Z,25.50
2023-01-10T06:19:30.580Z,25.50
2023-01-10T06:22:32.891Z,25.60
2023-01-10T06:25:37.659Z,25.60
2023-01-10T06:28:41.346Z,25.50
2023-01-10T06:31:43.343Z,25.70
2023-01-10T06:34:45.764Z,25.70
2023-01-10T06:37:48.778Z,25.60
2023-01-10T06:40:51.319Z,25.70
2023-01-10T06:43:54.959Z,25.60
2023-01-10T06:46:57.195Z,25.50
2023-01-10T06:49:59.172Z,25.60
2023-01-10T06:53:05.401Z,25.50
2023-01-10T06:56:09.643Z,25.50
2023-01-10T06:59:11.950Z,25.40
2023-01-10T07:02:14.116Z,25.50
2023-01-10T07:05:16.636Z,25.50
2023-01-10T07:08:18.622Z,25.40
2023-01-10T07:11:20.950Z,25.40
2023-01-10T07:14:23.362Z,25.30
2023-01-10T07:17:25.650Z,25.40
2023-01-10T07:20:28.359Z,25.40
2023-01-10T07:23:33.458Z,25.50
2023-01-10T07:26:36.026Z,25.50
2023-01-10T07:29:38.275Z,25.70
2023-01-10T07:32:40.257Z,25.60
2023-01-10T07:35:42.597Z,25.60
2023-01-10T07:38:44.822Z,25.60
2023-01-10T07:41:50.814Z,25.60
2023-01-10T07:44:52.786Z,25.60
2023-01-10T07:47:59.310Z,25.60
2023-01-10T07:51:01.880Z,25.70
2023-01-10T07:54:04.243Z,25.80
2023-01-10T07:57:06.218Z,25.90
2023-01-10T08:00:09.249Z,25.80
2023-01-10T08:03:12.120Z,25.80
2023-01-10T08:06:16.680Z,25.90
2023-01-10T08:09:18.951Z,25.90
2023-01-10T08:12:21.514Z,25.90
2023-01-10T08:15:23.774Z,25.80
2023-01-10T08:18:26.772Z,25.90
2023-01-10T08:21:28.791Z,25.90
2023-01-10T08:24:31.060Z,25.90
2023-01-10T08:27:33.066Z,25.90
2023-01-10T08:30:35.588Z,25.70
2023-01-10T08:33:41.472Z,25.70
2023-01-10T08:36:43.798Z,25.80
2023-01-10T08:39:45.836Z,25.80
2023-01-10T08:42:48.394Z,25.80
2023-01-10T08:45:53.640Z,25.90
2023-01-10T08:48:56.047Z,25.90
2023-01-10T08:51:58.110Z,26.10
2023-01-10T08:55:00.385Z,26.00
2023-01-10T08:58:02.913Z,26.10
2023-01-10T09:01:07.127Z,26.20
2023-01-10T09:04:09.079Z,26.30
2023-01-10T09:07:11.333Z,26.30
2023-01-10T09:10:13.368Z,26.30
2023-01-10T09:13:15.670Z,26.30
2023-01-10T09:16:18.705Z,26.50
2023-01-10T09:19:21.120Z,26.30
2023-01-10T09:22:23.759Z,26.40
2023-01-10T09:25:26.061Z,26.20
2023-01-10T09:28:28.106Z,26.20
2023-01-10T09:31:30.407Z,26.10
2023-01-10T09:34:32.402Z,26.20
2023-01-10T09:37:35.012Z,26.30
2023-01-10T09:40:48.387Z,26.10
2023-01-10T09:44:20.092Z,26.30
2023-01-10T09:47:27.517Z,26.40
2023-01-10T09:50:29.777Z,26.50
2023-01-10T09:53:34.586Z,26.40
2023-01-10T09:56:37.731Z,26.40
2023-01-10T09:59:42.877Z,26.40
2023-01-10T10:02:49.923Z,26.60
2023-01-10T10:06:00.875Z,26.90
2023-01-10T10:09:15.089Z,26.80
2023-01-10T10:12:38.230Z,26.70
2023-01-10T10:16:02.354Z,26.70
2023-01-10T10:19:13.608Z,26.70
2023-01-10T10:22:40.650Z,26.70
2023-01-10T10:26:21.920Z,26.80
2023-01-10T10:29:51.404Z,26.70
2023-01-10T10:33:17.847Z,26.60
2023-01-10T10:36:43.540Z,26.60
2023-01-10T10:39:55.123Z,26.70
2023-01-10T10:43:04.236Z,26.80
2023-01-10T10:46:14.082Z,26.80
2023-01-10T10:49:36.510Z,26.90
2023-01-10T10:52:38.709Z,26.80
2023-01-10T10:55:40.982Z,26.60
2023-01-10T10:58:46.110Z,26.50
2023-01-10T11:01:51.893Z,26.60
2023-01-10T11:04:58.739Z,26.70
2023-01-10T11:08:13.677Z,26.70
2023-01-10T11:11:44.666Z,26.50
2023-01-10T11:14:51.871Z,26.70
2023-01-10T11:18:11.263Z,26.60
2023-01-10T11:21:15.638Z,26.50
2023-01-10T11:24:29.221Z,26.50
2023-01-10T11:27:36.648Z,26.40
2023-01-10T11:30:39.051Z,26.40
2023-01-10T11:33:42.596Z,26.40
2023-01-10T11:37:05.515Z,26.30
2023-01-10T11:40:23.912Z,26.30
2023-01-10T11:43:35.509Z,26.00
2023-01-10T11:46:38.245Z,26.10
2023-01-10T11:49:43.967Z,26.10
2023-01-10T11:52:48.801Z,26.20
2023-01-10T11:56:10.084Z,26.10
2023-01-10T11:59:18.204Z,26.00
2023-01-10T12:02:25.079Z,26.40
2023-01-10T12:05:27.925Z,26.40
2023-01-10T12:08:32.503Z,26.30
2023-01-10T12:11:35.965Z,26.50
2023-01-10T12:14:37.983Z,26.30
2023-01-10T12:17:40.810Z,26.20
2023-01-10T12:20:57.865Z,26.30
2023-01-10T12:24:23.816Z,26.70
2023-01-10T12:27:28.114Z,26.80
2023-01-10T12:30:41.568Z,26.60
2023-01-10T12:33:53.666Z,26.70
2023-01-10T12:37:25.875Z,26.70
2023-01-10T12:40:43.026Z,26.50
2023-01-10T12:44:04.291Z,26.70
2023-01-10T12:47:25.217Z,26.90
2023-01-10T12:50:33.603Z,27.40
2023-01-10T12:53:40.801Z,27.40
2023-01-10T12:56:43.941Z,27.10
2023-01-10T12:59:46.302Z,26.90
2023-01-10T13:02:52.772Z,26.80
2023-01-10T13:05:57.186Z,26.40
2023-01-10T13:09:09.409Z,26.70
2023-01-10T13:12:21.660Z,26.40
2023-01-10T13:15:30.054Z,26.20
2023-01-10T13:18:32.907Z,26.10
2023-01-10T13:21:36.640Z,26.10
2023-01-10T13:24:38.788Z,25.90
2023-01-10T13:27:41.126Z,25.90
2023-01-10T13:30:43.229Z,26.00
2023-01-10T13:33:51.305Z,25.90
2023-01-10T13:36:57.452Z,25.90
2023-01-10T13:40:01.771Z,26.00
2023-01-10T13:43:34.490Z,26.00
2023-01-10T13:46:47.021Z,26.10
2023-01-10T13:49:49.043Z,25.90
2023-01-10T13:53:08.062Z,26.00
2023-01-10T13:56:40.886Z,25.90
2023-01-10T14:04:38.010Z,25.80
2023-01-10T14:07:49.561Z,25.60
2023-01-10T14:11:11.708Z,25.70
2023-01-10T14:14:38.185Z,25.80
2023-01-10T14:17:41.681Z,25.60
2023-01-10T14:20:44.544Z,25.80
2023-01-10T14:23:51.666Z,25.80
2023-01-10T14:26:57.407Z,25.70
2023-01-10T14:30:01.105Z,25.70
2023-01-10T14:33:20.523Z,25.70
2023-01-10T14:36:39.283Z,25.70
2023-01-10T14:39:43.407Z,25.80
2023-01-10T14:42:49.377Z,25.80
2023-01-10T14:46:15.822Z,25.80
2023-01-10T14:49:51.283Z,25.80
2023-01-10T14:52:53.526Z,25.90
2023-01-10T14:55:56.360Z,25.90
2023-01-10T14:58:58.601Z,25.90
2023-01-10T15:02:31.738Z,25.90
2023-01-10T15:05:44.835Z,25.80
2023-01-10T15:08:56.894Z,25.90
2023-01-10T15:12:03.029Z,26.00
2023-01-10T15:15:17.199Z,26.00
2023-01-10T15:18:39.401Z,26.10
2023-01-10T15:21:43.899Z,26.00
2023-01-10T15:24:58.672Z,26.00
2023-01-10T15:28:02.799Z,26.00
2023-01-10T15:31:07.470Z,25.90
2023-01-10T15:34:15.631Z,26.00
2023-01-10T15:37:26.518Z,26.10
2023-01-10T15:40:34.897Z,26.20
2023-01-10T15:43:37.339Z,26.30
2023-01-10T15:46:57.359Z,26.40
2023-01-10T15:49:59.665Z,26.60
2023-01-10T15:53:10.631Z,26.60
2023-01-10T15:56:19.435Z,26.70
2023-01-10T15:59:27.437Z,26.60
2023-01-10T16:02:33.208Z,26.70
2023-01-10T16:05:36.374Z,26.70
2023-01-10T16:08:39.138Z,26.80
2023-01-10T16:12:11.384Z,26.70
2023-01-10T16:15:22.854Z,26.80
2023-01-10T16:18:25.789Z,26.70
2023-01-10T16:21:34.565Z,26.60
2023-01-10T16:24:41.983Z,26.40
2023-01-10T16:27:44.445Z,26.30
2023-01-10T16:30:49.735Z,26.20
2023-01-10T16:33:51.927Z,26.10
2023-01-10T16:36:54.143Z,26.00
2023-01-10T16:39:56.877Z,25.90
2023-01-10T16:43:17.752Z,25.80
2023-01-10T16:46:20.022Z,25.90
2023-01-10T16:49:22.880Z,25.90
2023-01-10T16:52:25.053Z,25.80
2023-01-10T16:55:45.039Z,25.70
2023-01-10T16:58:48.814Z,25.80
2023-01-10T17:01:54.745Z,25.80
2023-01-10T17:04:57.949Z,25.80
2023-01-10T17:08:00.209Z,25.80
2023-01-10T17:11:06.721Z,25.90
2023-01-10T17:14:14.154Z,26.00
2023-01-10T17:17:16.107Z,26.00
2023-01-10T17:20:18.872Z,26.00
2023-01-10T17:23:20.846Z,26.10
2023-01-10T17:26:23.168Z,26.10
2023-01-10T17:29:25.193Z,26.10
2023-01-10T17:32:27.737Z,26.20
2023-01-10T17:35:32.431Z,26.30
2023-01-10T17:38:34.826Z,26.20
2023-01-10T17:41:36.857Z,26.10
2023-01-10T17:44:39.126Z,26.10
2023-01-10T17:47:42.282Z,26.20
2023-01-10T17:50:49.939Z,26.10
2023-01-10T17:53:54.573Z,26.10
2023-01-10T17:56:56.997Z,26.00
2023-01-10T18:00:02.848Z,26.10
2023-01-10T18:03:06.504Z,26.00
2023-01-10T18:06:18.959Z,26.00
2023-01-10T18:09:25.859Z,26.10
2023-01-10T18:12:28.909Z,26.20
2023-01-10T18:15:31.187Z,26.20
2023-01-10T18:18:33.212Z,26.60
2023-01-10T18:21:35.514Z,26.10
2023-01-10T18:24:37.655Z,26.20
2023-01-10T18:27:39.946Z,26.40
2023-01-10T18:30:41.991Z,26.40
2023-01-10T18:33:47.941Z,26.60
2023-01-10T18:36:51.105Z,26.60
2023-01-10T18:39:54.882Z,26.40
2023-01-10T18:42:58.442Z,26.40
2023-01-10T18:46:03.468Z,26.30
2023-01-10T18:49:06.178Z,26.30
2023-01-10T18:52:10.442Z,26.40
2023-01-10T18:55:12.423Z,26.40
2023-01-10T18:58:14.676Z,26.40
2023-01-10T19:01:19.743Z,26.30
2023-01-10T19:04:22.368Z,26.30
2023-01-10T19:07:24.978Z,26.20
2023-01-10T19:10:27.379Z,26.20
2023-01-10T19:13:30.603Z,26.20
2023-01-10T19:16:32.952Z,26.10
2023-01-10T19:19:34.970Z,26.10
2023-01-10T19:22:37.255Z,26.40
2023-01-10T19:25:39.305Z,26.50
2023-01-10T19:28:45.255Z,26.40
2023-01-10T19:31:49.780Z,26.40
2023-01-10T19:34:52.183Z,26.50
2023-01-10T19:37:54.225Z,26.40
2023-01-10T19:40:56.542Z,26.40
2023-01-10T19:44:00.456Z,26.30
2023-01-10T19:47:02.891Z,26.30
2023-01-10T19:50:05.340Z,26.20
2023-01-10T19:53:07.688Z,26.10
2023-01-10T19:56:10.475Z,26.10
2023-01-10T19:59:14.769Z,26.10
2023-01-10T20:02:17.005Z,26.00
2023-01-10T20:05:19.533Z,26.20
2023-01-10T20:08:22.895Z,26.30
2023-01-10T20:11:28.144Z,26.10
2023-01-10T20:14:30.666Z,26.10
2023-01-10T20:17:33.258Z,26.20
2023-01-10T20:20:35.797Z,26.40
2023-01-10T20:23:40.060Z,26.30
2023-01-10T20:26:43.364Z,26.40
2023-01-10T20:29:45.817Z,26.40
2023-01-10T20:32:48.610Z,26.50
2023-01-10T20:36:09.238Z,26.50
2023-01-10T20:39:11.210Z,26.40
2023-01-10T20:42:13.504Z,26.40
2023-01-10T20:45:15.586Z,26.30
2023-01-10T20:48:18.026Z,26.30
2023-01-10T20:51:22.937Z,26.30
2023-01-10T20:54:25.680Z,26.20
2023-01-10T20:57:27.679Z,26.40
2023-01-10T21:00:30.541Z,26.40
2023-01-10T21:03:32.955Z,26.30
2023-01-10T21:06:36.666Z,26.30
2023-01-10T21:09:38.884Z,26.40
2023-01-10T21:12:41.897Z,26.40
2023-01-10T21:15:46.977Z,26.40
2023-01-10T21:18:50.488Z,26.30
2023-01-10T21:21:52.505Z,26.20
2023-01-10T21:24:54.850Z,26.30
2023-01-10T21:27:56.961Z,26.30
2023-01-10T21:31:00.968Z,26.20
2023-01-10T21:34:03.615Z,26.20
2023-01-10T21:37:05.980Z,26.10
2023-01-10T21:40:08.559Z,26.20
2023-01-10T21:43:10.825Z,26.10
2023-01-10T21:46:20.160Z,26.20
2023-01-10T21:49:22.884Z,26.20
2023-01-10T21:52:24.922Z,26.20
2023-01-10T21:55:27.255Z,26.00
2023-01-10T21:58:29.433Z,26.60
2023-01-10T22:01:35.963Z,26.50
2023-01-10T22:04:38.351Z,26.00
2023-01-10T22:07:40.868Z,26.00
2023-01-10T22:10:42.886Z,26.10
2023-01-10T22:13:45.219Z,26.10
2023-01-10T22:16:47.159Z,26.20
2023-01-10T22:19:49.692Z,26.20
2023-01-10T22:22:51.677Z,26.20
2023-01-10T22:26:08.795Z,26.20
2023-01-10T22:29:11.081Z,26.30
2023-01-10T22:32:13.329Z,26.40
2023-01-10T22:35:15.328Z,26.30
2023-01-10T22:38:17.597Z,26.30
2023-01-10T22:41:27.410Z,26.20
2023-01-10T22:44:29.727Z,26.30
2023-01-10T22:47:31.767Z,26.20
2023-01-10T22:50:33.969Z,26.20
2023-01-10T22:53:36.075Z,26.00
2023-01-10T22:56:38.349Z,26.10
2023-01-10T22:59:40.279Z,26.10
2023-01-10T23:02:42.686Z,26.20
2023-01-10T23:05:44.765Z,26.30
2023-01-10T23:08:47.081Z,26.30
2023-01-10T23:11:51.760Z,26.40
2023-01-10T23:14:53.977Z,26.20
2023-01-10T23:17:56.005Z,26.20
2023-01-10T23:20:58.475Z,26.10
2023-01-10T23:24:00.531Z,26.20
2023-01-10T23:27:02.758Z,26.10
2023-01-10T23:30:06.721Z,26.20
2023-01-10T23:33:08.951Z,26.20
2023-01-10T23:36:11.843Z,25.90
2023-01-10T23:39:16.332Z,25.90
2023-01-10T23:42:18.288Z,26.00
2023-01-10T23:45:20.557Z,25.90
2023-01-10T23:48:22.761Z,25.90
2023-01-10T23:51:24.993Z,25.90
2023-01-10T23:54:27.042Z,26.00
2023-01-10T23:57:29.392Z,26.00
